createdAt,value
2018-11-01T00:00:02.639Z,3.27
2018-11-01T00:02:31.073Z,3.17
2018-11-01T00:04:59.497Z,3.73
2018-11-01T00:07:27.972Z,3.40
2018-11-01T00:09:56.383Z,3.23
2018-11-01T00:12:24.811Z,3.60
2018-11-01T00:14:53.212Z,4.70
2018-11-01T00:17:21.642Z,4.80
2018-11-01T00:19:50.028Z,3.30
2018-11-01T00:22:18.478Z,3.70
2018-11-01T00:24:46.904Z,3.07
2018-11-01T00:27:15.343Z,3.10
2018-11-01T00:29:43.765Z,3.30
2018-11-01T00:32:12.199Z,3.80
2018-11-01T00:34:40.605Z,4.60
2018-11-01T00:37:09.024Z,3.90
2018-11-01T00:39:37.437Z,3.60
2018-11-01T00:42:06.297Z,2.93
2018-11-01T00:44:34.903Z,3.80
2018-11-01T00:47:03.331Z,3.50
2018-11-01T00:49:31.731Z,3.73
2018-11-01T00:52:00.173Z,3.90
2018-11-01T00:54:28.594Z,3.80
2018-11-01T00:56:57.035Z,3.47
2018-11-01T00:59:25.454Z,5.60
2018-11-01T01:01:53.900Z,3.10
2018-11-01T01:04:22.312Z,7.53
2018-11-01T01:06:50.727Z,4.37
2018-11-01T01:09:19.182Z,3.53
2018-11-01T01:11:47.591Z,4.33
2018-11-01T01:14:16.042Z,4.33
2018-11-01T01:16:44.462Z,3.10
2018-11-01T01:19:12.895Z,4.23
2018-11-01T01:21:41.316Z,4.97
2018-11-01T01:24:09.795Z,5.97
2018-11-01T01:26:38.228Z,7.17
2018-11-01T01:29:06.802Z,3.53
2018-11-01T01:31:35.257Z,3.47
2018-11-01T01:34:03.701Z,3.60
2018-11-01T01:36:32.141Z,3.43
2018-11-01T01:39:00.584Z,5.60
2018-11-01T01:41:28.999Z,3.80
2018-11-01T01:43:57.468Z,3.40
2018-11-01T01:46:25.891Z,4.40
2018-11-01T01:48:54.317Z,5.20
2018-11-01T01:51:22.719Z,3.30
2018-11-01T01:53:51.156Z,3.73
2018-11-01T01:56:19.568Z,3.03
2018-11-01T01:58:48.022Z,2.97
2018-11-01T02:01:17.533Z,3.90
2018-11-01T02:03:45.972Z,3.60
2018-11-01T02:06:14.389Z,6.33
2018-11-01T02:08:43.044Z,4.00
2018-11-01T02:11:11.463Z,4.40
2018-11-01T02:13:39.898Z,5.70
2018-11-01T02:16:08.339Z,6.07
2018-11-01T02:18:36.774Z,7.83
2018-11-01T02:21:05.751Z,5.17
2018-11-01T02:23:34.197Z,5.40
2018-11-01T02:26:02.643Z,5.33
2018-11-01T02:28:31.104Z,4.60
2018-11-01T02:30:59.528Z,6.67
2018-11-01T02:33:27.959Z,4.50
2018-11-01T02:35:56.389Z,5.70
2018-11-01T02:38:24.863Z,4.07
2018-11-01T02:40:53.302Z,4.70
2018-11-01T02:43:21.783Z,5.40
2018-11-01T02:45:50.197Z,5.50
2018-11-01T02:48:18.630Z,5.07
2018-11-01T02:50:47.038Z,5.70
2018-11-01T02:53:15.497Z,7.20
2018-11-01T02:55:43.923Z,4.53
2018-11-01T02:58:12.363Z,6.10
2018-11-01T03:00:40.778Z,5.20
2018-11-01T03:03:09.212Z,6.97
2018-11-01T03:05:37.624Z,6.03
2018-11-01T03:08:06.315Z,32.87
2018-11-01T03:10:34.753Z,8.73
2018-11-01T03:13:03.191Z,6.60
2018-11-01T03:15:31.613Z,7.60
2018-11-01T03:18:00.044Z,7.57
2018-11-01T03:20:28.478Z,5.60
2018-11-01T03:22:57.761Z,7.13
2018-11-01T03:25:26.163Z,6.30
2018-11-01T03:27:54.609Z,5.53
2018-11-01T03:30:23.037Z,5.93
2018-11-01T03:32:51.486Z,7.43
2018-11-01T03:35:19.913Z,6.20
2018-11-01T03:37:48.373Z,4.70
2018-11-01T03:40:16.775Z,5.07
2018-11-01T03:42:45.252Z,4.97
2018-11-01T03:45:14.044Z,5.13
2018-11-01T03:47:42.994Z,4.80
2018-11-01T03:50:12.181Z,5.90
2018-11-01T03:52:40.623Z,5.47
2018-11-01T03:55:10.507Z,4.80
2018-11-01T03:57:38.939Z,5.43
2018-11-01T04:00:10.231Z,4.80
2018-11-01T04:02:38.701Z,4.37
2018-11-01T04:05:07.147Z,4.50
2018-11-01T04:07:35.574Z,4.40
2018-11-01T04:10:04.723Z,5.17
2018-11-01T04:12:33.144Z,5.67
2018-11-01T04:15:01.633Z,4.60
2018-11-01T04:17:30.021Z,5.23
2018-11-01T04:19:58.498Z,5.97
2018-11-01T04:22:26.930Z,4.90
2018-11-01T04:24:55.358Z,7.33
2018-11-01T04:27:23.757Z,6.07
2018-11-01T04:29:52.198Z,6.03
2018-11-01T04:32:20.624Z,6.40
2018-11-01T04:34:49.084Z,10.33
2018-11-01T04:37:17.511Z,7.03
2018-11-01T04:39:45.960Z,4.77
2018-11-01T04:42:14.391Z,5.83
2018-11-01T04:44:42.832Z,4.80
2018-11-01T04:47:11.341Z,4.57
2018-11-01T04:49:39.741Z,5.30
2018-11-01T04:52:08.211Z,6.77
2018-11-01T04:54:36.655Z,5.00
2018-11-01T04:57:05.040Z,5.60
2018-11-01T04:59:33.474Z,6.30
2018-11-01T05:02:01.914Z,4.83
2018-11-01T05:04:30.354Z,8.03
2018-11-01T05:06:58.854Z,6.50
2018-11-01T05:09:27.276Z,5.53
2018-11-01T05:11:55.704Z,6.30
2018-11-01T05:14:24.138Z,7.87
2018-11-01T05:16:52.557Z,8.30
2018-11-01T05:19:21.012Z,6.57
2018-11-01T05:21:49.432Z,8.77
2018-11-01T05:24:17.881Z,6.90
2018-11-01T05:26:46.333Z,6.37
2018-11-01T05:29:14.794Z,4.40
2018-11-01T05:31:43.229Z,7.33
2018-11-01T05:34:11.671Z,8.17
2018-11-01T05:36:40.096Z,4.83
2018-11-01T05:39:10.228Z,4.90
2018-11-01T05:41:38.663Z,6.27
2018-11-01T05:44:07.191Z,4.37
2018-11-01T05:46:35.606Z,9.63
2018-11-01T05:49:04.054Z,5.57
2018-11-01T05:51:32.497Z,6.80
2018-11-01T05:54:00.909Z,7.40
2018-11-01T05:56:29.367Z,12.30
2018-11-01T05:58:57.773Z,7.40
2018-11-01T06:01:32.472Z,7.83
2018-11-01T06:04:01.035Z,7.60
2018-11-01T06:06:29.478Z,7.30
2018-11-01T06:08:57.931Z,9.00
2018-11-01T06:11:26.373Z,7.77
2018-11-01T06:13:54.820Z,9.60
2018-11-01T06:16:23.261Z,6.87
2018-11-01T06:18:51.718Z,6.17
2018-11-01T06:21:20.189Z,12.00
2018-11-01T06:23:48.606Z,8.80
2018-11-01T06:26:17.669Z,7.13
2018-11-01T06:28:46.107Z,7.53
2018-11-01T06:31:14.573Z,8.23
2018-11-01T06:33:43.009Z,8.60
2018-11-01T06:36:14.651Z,12.43
2018-11-01T06:38:43.091Z,6.63
2018-11-01T06:41:11.538Z,7.10
2018-11-01T06:43:40.013Z,6.30
2018-11-01T06:46:08.480Z,6.43
2018-11-01T06:48:36.938Z,7.80
2018-11-01T06:51:05.847Z,5.77
2018-11-01T06:53:34.266Z,8.17
2018-11-01T06:56:02.681Z,8.27
2018-11-01T06:58:31.247Z,7.20
2018-11-01T07:00:59.568Z,7.17
2018-11-01T07:03:28.025Z,9.30
2018-11-01T07:05:56.464Z,6.60
2018-11-01T07:08:24.933Z,7.77
2018-11-01T07:10:53.395Z,6.57
2018-11-01T07:13:21.831Z,5.33
2018-11-01T07:15:50.262Z,12.10
2018-11-01T07:18:18.703Z,5.30
2018-11-01T07:20:47.130Z,6.00
2018-11-01T07:23:15.588Z,5.90
2018-11-01T07:25:44.036Z,6.17
2018-11-01T07:28:12.486Z,7.63
2018-11-01T07:30:40.905Z,6.90
2018-11-01T07:33:09.352Z,6.63
2018-11-01T07:35:37.770Z,8.30
2018-11-01T07:38:06.477Z,7.60
2018-11-01T07:40:34.906Z,11.13
2018-11-01T07:43:03.407Z,7.63
2018-11-01T07:45:31.841Z,8.03
2018-11-01T07:48:00.294Z,10.00
2018-11-01T07:50:28.728Z,9.00
2018-11-01T07:52:57.284Z,7.80
2018-11-01T07:55:25.644Z,9.00
2018-11-01T07:57:54.101Z,8.60
2018-11-01T08:00:22.508Z,9.33
2018-11-01T08:02:50.947Z,9.77
2018-11-01T08:05:19.352Z,8.20
2018-11-01T08:07:47.813Z,9.37
2018-11-01T08:10:18.369Z,9.87
2018-11-01T08:12:47.621Z,11.40
2018-11-01T08:15:17.614Z,10.23
2018-11-01T08:17:46.050Z,17.30
2018-11-01T08:20:15.402Z,8.70
2018-11-01T08:22:43.648Z,8.23
2018-11-01T08:25:12.764Z,10.83
2018-11-01T08:27:41.860Z,10.63
2018-11-01T08:30:13.470Z,11.97
2018-11-01T08:32:41.895Z,12.90
2018-11-01T08:35:11.392Z,9.20
2018-11-01T08:37:40.563Z,12.40
2018-11-01T08:40:09.709Z,9.93
2018-11-01T08:42:38.389Z,10.67
2018-11-01T08:45:08.953Z,10.87
2018-11-01T08:47:37.676Z,11.10
2018-11-01T08:50:07.285Z,10.63
2018-11-01T08:52:35.661Z,10.00
2018-11-01T08:55:04.105Z,12.23
2018-11-01T08:57:32.511Z,12.50
2018-11-01T09:00:00.959Z,16.20
2018-11-01T09:02:29.390Z,12.30
2018-11-01T09:04:57.821Z,12.80
2018-11-01T09:07:26.255Z,10.30
2018-11-01T09:09:54.740Z,12.23
2018-11-01T09:12:23.149Z,12.00
2018-11-01T09:14:51.594Z,13.70
2018-11-01T09:17:20.005Z,11.93
2018-11-01T09:19:48.468Z,13.80
2018-11-01T09:22:16.903Z,13.67
2018-11-01T09:24:45.596Z,15.07
2018-11-01T09:27:14.026Z,13.60
2018-11-01T09:29:42.467Z,23.63
2018-11-01T09:32:10.885Z,12.53
2018-11-01T09:34:39.322Z,15.20
2018-11-01T09:37:07.750Z,13.13
2018-11-01T09:39:36.225Z,12.23
2018-11-01T09:42:04.757Z,13.20
2018-11-01T09:44:33.195Z,14.30
2018-11-01T09:47:01.950Z,14.40
2018-11-01T09:49:30.131Z,14.10
2018-11-01T09:51:58.560Z,16.53
2018-11-01T09:54:27.176Z,14.10
2018-11-01T09:56:55.633Z,16.50
2018-11-01T09:59:24.060Z,16.07
2018-11-01T10:01:52.544Z,18.40
2018-11-01T10:04:20.964Z,14.93
2018-11-01T10:06:49.471Z,15.77
2018-11-01T10:09:17.864Z,16.30
2018-11-01T10:11:46.311Z,14.10
2018-11-01T10:14:14.721Z,15.23
2018-11-01T10:16:43.341Z,15.10
2018-11-01T10:19:11.877Z,17.30
2018-11-01T10:21:40.341Z,17.17
2018-11-01T10:24:09.189Z,14.50
2018-11-01T10:26:37.634Z,15.50
2018-11-01T10:29:06.080Z,17.33
2018-11-01T10:31:34.527Z,17.60
2018-11-01T10:34:03.069Z,15.10
2018-11-01T10:36:31.521Z,15.53
2018-11-01T10:38:59.941Z,19.53
2018-11-01T10:41:28.395Z,15.17
2018-11-01T10:43:56.857Z,16.07
2018-11-01T10:46:25.330Z,15.13
2018-11-01T10:48:53.766Z,19.40
2018-11-01T10:51:22.224Z,16.60
2018-11-01T10:53:50.711Z,16.60
2018-11-01T10:56:19.092Z,16.73
2018-11-01T10:58:47.545Z,19.10
2018-11-01T11:01:21.209Z,14.83
2018-11-01T11:03:49.659Z,15.33
2018-11-01T11:06:18.170Z,18.90
2018-11-01T11:08:46.586Z,15.57
2018-11-01T11:11:15.018Z,18.77
2018-11-01T11:13:43.468Z,15.60
2018-11-01T11:16:11.887Z,17.30
2018-11-01T11:18:40.363Z,18.40
2018-11-01T11:21:09.117Z,19.27
2018-11-01T11:23:37.293Z,18.90
2018-11-01T11:26:05.740Z,18.00
2018-11-01T11:28:34.223Z,17.60
2018-11-01T11:31:02.647Z,16.67
2018-11-01T11:33:31.106Z,16.87
2018-11-01T11:35:59.713Z,17.27
2018-11-01T11:38:28.003Z,18.13
2018-11-01T11:40:56.425Z,18.70
2018-11-01T11:43:24.919Z,19.63
2018-11-01T11:45:53.355Z,18.33
2018-11-01T11:48:21.805Z,15.70
2018-11-01T11:50:50.235Z,19.33
2018-11-01T11:53:18.688Z,18.83
2018-11-01T11:55:47.136Z,21.93
2018-11-01T11:58:15.613Z,16.90
2018-11-01T12:00:44.065Z,18.03
2018-11-01T12:03:12.491Z,20.17
2018-11-01T12:05:40.964Z,23.67
2018-11-01T12:08:09.456Z,19.67
2018-11-01T12:10:37.919Z,19.27
2018-11-01T12:13:06.534Z,19.47
2018-11-01T12:15:35.020Z,21.90
2018-11-01T12:18:03.459Z,24.20
2018-11-01T12:20:31.905Z,17.20
2018-11-01T12:23:00.353Z,21.13
2018-11-01T12:25:28.796Z,17.87
2018-11-01T12:27:57.231Z,20.00
2018-11-01T12:30:25.662Z,20.73
2018-11-01T12:32:54.088Z,16.30
2018-11-01T12:35:22.563Z,15.80
2018-11-01T12:37:51.023Z,16.70
2018-11-01T12:40:19.464Z,16.27
2018-11-01T12:42:47.898Z,20.10
2018-11-01T12:45:16.353Z,16.57
2018-11-01T12:47:44.795Z,17.93
2018-11-01T12:50:14.416Z,16.13
2018-11-01T12:52:42.866Z,17.97
2018-11-01T12:55:11.653Z,21.30
2018-11-01T12:57:40.084Z,17.23
2018-11-01T13:00:10.160Z,16.70
2018-11-01T13:02:38.728Z,18.20
2018-11-01T13:05:07.111Z,18.33
2018-11-01T13:07:35.549Z,18.90
2018-11-01T13:10:04.029Z,19.60
2018-11-01T13:12:32.509Z,19.70
2018-11-01T13:15:00.934Z,21.67
2018-11-01T13:17:29.381Z,19.43
2018-11-01T13:19:57.813Z,21.70
2018-11-01T13:22:26.272Z,21.23
2018-11-01T13:24:54.715Z,18.03
2018-11-01T13:27:23.164Z,16.07
2018-11-01T13:29:51.614Z,16.87
2018-11-01T13:32:20.057Z,16.77
2018-11-01T13:34:48.582Z,16.97
2018-11-01T13:37:16.970Z,22.10
2018-11-01T13:39:45.579Z,17.43
2018-11-01T13:42:13.933Z,17.87
2018-11-01T13:44:42.353Z,17.50
2018-11-01T13:47:12.887Z,16.20
2018-11-01T13:49:42.328Z,16.73
2018-11-01T13:52:12.238Z,17.43
2018-11-01T13:54:42.962Z,21.57
2018-11-01T13:57:11.512Z,17.87
2018-11-01T13:59:39.989Z,19.07
2018-11-01T14:02:08.405Z,20.50
2018-11-01T14:04:36.871Z,20.13
2018-11-01T14:07:05.496Z,19.20
2018-11-01T14:09:33.969Z,21.77
2018-11-01T14:12:02.387Z,19.83
2018-11-01T14:14:31.287Z,21.80
2018-11-01T14:16:59.292Z,21.10
2018-11-01T14:19:27.760Z,21.00
2018-11-01T14:21:56.185Z,20.53
2018-11-01T14:24:24.674Z,18.53
2018-11-01T14:26:53.072Z,20.80
2018-11-01T14:29:21.508Z,18.20
2018-11-01T14:31:49.930Z,18.70
2018-11-01T14:34:18.370Z,20.13
2018-11-01T14:36:46.788Z,28.00
2018-11-01T14:39:15.220Z,20.90
2018-11-01T14:41:43.640Z,19.13
2018-11-01T14:44:12.137Z,23.67
2018-11-01T14:46:40.572Z,20.20
2018-11-01T14:49:08.984Z,24.70
2018-11-01T14:51:37.428Z,22.07
2018-11-01T14:54:06.639Z,24.80
2018-11-01T14:56:36.063Z,22.20
2018-11-01T14:59:04.596Z,21.67
2018-11-01T15:01:31.285Z,27.13
2018-11-01T15:03:59.721Z,21.83
2018-11-01T15:06:28.221Z,23.60
2018-11-01T15:08:56.628Z,22.00
2018-11-01T15:11:25.074Z,20.90
2018-11-01T15:13:53.493Z,20.07
2018-11-01T15:16:21.947Z,22.80
2018-11-01T15:18:50.613Z,25.10
2018-11-01T15:21:19.113Z,23.80
2018-11-01T15:23:47.609Z,23.23
2018-11-01T15:26:16.252Z,26.87
2018-11-01T15:28:44.634Z,24.33
2018-11-01T15:31:13.076Z,25.90
2018-11-01T15:33:41.666Z,21.30
2018-11-01T15:36:10.003Z,24.03
2018-11-01T15:38:38.433Z,22.80
2018-11-01T15:41:10.963Z,22.30
2018-11-01T15:43:39.809Z,19.93
2018-11-01T15:46:08.952Z,23.70
2018-11-01T15:48:37.379Z,23.60
2018-11-01T15:51:06.749Z,21.17
2018-11-01T15:53:35.165Z,23.70
2018-11-01T15:56:03.629Z,23.60
2018-11-01T15:58:32.098Z,21.60
2018-11-01T16:01:00.536Z,24.70
2018-11-01T16:03:29.045Z,20.20
2018-11-01T16:05:57.434Z,23.23
2018-11-01T16:08:25.901Z,20.97
2018-11-01T16:10:54.364Z,27.03
2018-11-01T16:13:22.861Z,22.60
2018-11-01T16:15:51.284Z,24.20
2018-11-01T16:18:19.745Z,23.43
2018-11-01T16:20:48.162Z,27.80
2018-11-01T16:23:16.639Z,26.10
2018-11-01T16:25:45.093Z,27.07
2018-11-01T16:28:13.576Z,55.43
2018-11-01T16:30:41.991Z,36.40
2018-11-01T16:33:10.430Z,55.97
2018-11-01T16:35:38.847Z,40.10
2018-11-01T16:38:07.301Z,35.63
2018-11-01T16:40:35.734Z,32.10
2018-11-01T16:43:04.194Z,31.43
2018-11-01T16:45:32.631Z,29.73
2018-11-01T16:48:01.117Z,27.70
2018-11-01T16:50:29.549Z,33.73
2018-11-01T16:52:58.007Z,31.40
2018-11-01T16:55:26.428Z,28.83
2018-11-01T16:57:54.878Z,32.30
2018-11-01T17:00:23.321Z,36.63
2018-11-01T17:02:51.776Z,32.20
2018-11-01T17:05:20.213Z,30.83
2018-11-01T17:07:48.640Z,31.87
2018-11-01T17:10:19.602Z,35.40
2018-11-01T17:12:48.019Z,33.40
2018-11-01T17:15:16.538Z,31.50
2018-11-01T17:17:45.601Z,34.30
2018-11-01T17:20:14.135Z,31.83
2018-11-01T17:22:43.015Z,26.03
2018-11-01T17:25:11.524Z,29.63
2018-11-01T17:27:39.913Z,30.40
2018-11-01T17:30:09.319Z,30.23
2018-11-01T17:32:43.130Z,30.57
2018-11-01T17:35:11.608Z,32.93
2018-11-01T17:37:40.031Z,32.57
2018-11-01T17:40:08.972Z,28.63
2018-11-01T17:42:37.457Z,31.80
2018-11-01T17:45:06.953Z,29.60
2018-11-01T17:47:35.392Z,32.43
2018-11-01T17:50:04.210Z,34.60
2018-11-01T17:52:32.633Z,33.40
2018-11-01T17:55:01.126Z,31.83
2018-11-01T17:57:29.544Z,35.00
2018-11-01T17:59:57.982Z,29.03
2018-11-01T18:02:26.613Z,33.10
2018-11-01T18:04:54.981Z,32.87
2018-11-01T18:07:23.449Z,34.10
2018-11-01T18:09:51.876Z,35.43
2018-11-01T18:12:20.373Z,37.13
2018-11-01T18:14:48.785Z,34.50
2018-11-01T18:17:17.247Z,33.60
2018-11-01T18:19:45.681Z,37.53
2018-11-01T18:22:14.137Z,35.33
2018-11-01T18:24:42.593Z,36.13
2018-11-01T18:27:11.057Z,33.07
2018-11-01T18:29:39.482Z,35.63
2018-11-01T18:32:08.096Z,34.20
2018-11-01T18:34:36.437Z,35.80
2018-11-01T18:37:04.972Z,38.83
2018-11-01T18:39:33.551Z,33.97
2018-11-01T18:42:01.901Z,40.50
2018-11-01T18:44:30.349Z,40.17
2018-11-01T18:46:58.824Z,36.73
2018-11-01T18:49:27.243Z,34.00
2018-11-01T18:51:55.706Z,40.60
2018-11-01T18:54:24.189Z,44.90
2018-11-01T18:56:52.626Z,41.53
2018-11-01T18:59:21.066Z,37.83
2018-11-01T19:01:49.517Z,42.50
2018-11-01T19:04:17.961Z,42.47
2018-11-01T19:06:46.396Z,37.30
2018-11-01T19:09:14.864Z,39.77
2018-11-01T19:11:43.281Z,46.80
2018-11-01T19:14:11.761Z,43.27
2018-11-01T19:16:40.233Z,37.53
2018-11-01T19:19:08.684Z,32.90
2018-11-01T19:21:37.134Z,29.80
2018-11-01T19:24:05.659Z,34.50
2018-11-01T19:26:34.106Z,29.23
2018-11-01T19:29:02.550Z,32.40
2018-11-01T19:31:30.994Z,40.73
2018-11-01T19:33:59.505Z,39.23
2018-11-01T19:36:27.879Z,45.03
2018-11-01T19:38:56.344Z,39.07
2018-11-01T19:41:24.780Z,47.43
2018-11-01T19:43:53.273Z,41.93
2018-11-01T19:46:21.708Z,36.83
2018-11-01T19:48:50.151Z,34.37
2018-11-01T19:51:18.579Z,46.27
2018-11-01T19:53:47.044Z,34.20
2018-11-01T19:56:15.467Z,27.10
2018-11-01T19:58:43.953Z,38.10
2018-11-01T20:01:12.377Z,110.17
2018-11-01T20:03:41.623Z,43.00
2018-11-01T20:06:10.041Z,61.93
2018-11-01T20:08:38.513Z,58.60
2018-11-01T20:11:06.965Z,48.20
2018-11-01T20:13:35.451Z,56.70
2018-11-01T20:16:03.870Z,61.57
2018-11-01T20:18:32.403Z,46.57
2018-11-01T20:21:00.753Z,44.23
2018-11-01T20:23:29.199Z,48.10
2018-11-01T20:25:57.624Z,50.40
2018-11-01T20:28:26.048Z,49.33
2018-11-01T20:30:54.526Z,51.03
2018-11-01T20:33:23.019Z,55.70
2018-11-01T20:35:51.419Z,57.63
2018-11-01T20:38:19.868Z,46.73
2018-11-01T20:40:48.309Z,49.90
2018-11-01T20:43:16.759Z,49.17
2018-11-01T20:45:45.221Z,57.27
2018-11-01T20:48:13.664Z,60.03
2018-11-01T20:50:42.120Z,56.17
2018-11-01T20:53:10.560Z,51.77
2018-11-01T20:55:38.985Z,65.23
2018-11-01T20:58:07.411Z,57.17
2018-11-01T21:00:35.997Z,60.00
2018-11-01T21:03:04.439Z,42.10
2018-11-01T21:05:32.886Z,42.13
2018-11-01T21:08:01.401Z,45.13
2018-11-01T21:10:29.900Z,56.03
2018-11-01T21:12:58.320Z,47.77
2018-11-01T21:15:26.764Z,52.87
2018-11-01T21:17:55.214Z,53.83
2018-11-01T21:20:23.661Z,54.50
2018-11-01T21:22:52.090Z,48.57
2018-11-01T21:25:20.578Z,53.80
2018-11-01T21:27:49.013Z,65.23
2018-11-01T21:30:17.493Z,55.97
2018-11-01T21:32:46.032Z,53.47
2018-11-01T21:35:14.576Z,61.30
2018-11-01T21:37:42.931Z,51.40
2018-11-01T21:40:12.012Z,53.77
2018-11-01T21:42:40.527Z,52.33
2018-11-01T21:45:10.845Z,51.10
2018-11-01T21:47:39.357Z,54.93
2018-11-01T21:50:07.825Z,44.90
2018-11-01T21:52:36.265Z,43.97
2018-11-01T21:55:04.719Z,43.73
2018-11-01T21:57:33.269Z,51.47
2018-11-01T22:00:02.061Z,41.90
2018-11-01T22:02:30.508Z,41.60
2018-11-01T22:04:58.926Z,41.33
2018-11-01T22:07:27.417Z,40.23
2018-11-01T22:09:55.853Z,39.70
2018-11-01T22:12:24.296Z,40.80
2018-11-01T22:14:52.714Z,43.00
2018-11-01T22:17:21.192Z,39.43
2018-11-01T22:19:49.609Z,42.93
2018-11-01T22:22:18.052Z,43.23
2018-11-01T22:24:46.476Z,49.37
2018-11-01T22:27:14.958Z,42.67
2018-11-01T22:29:43.389Z,43.47
2018-11-01T22:32:11.833Z,40.70
2018-11-01T22:34:40.257Z,39.70
2018-11-01T22:37:08.735Z,37.43
2018-11-01T22:39:37.181Z,44.47
2018-11-01T22:42:06.277Z,41.80
2018-11-01T22:44:34.695Z,50.27
2018-11-01T22:47:03.141Z,41.30
2018-11-01T22:49:31.548Z,43.23
2018-11-01T22:51:59.980Z,50.37
2018-11-01T22:54:28.420Z,47.87
2018-11-01T22:56:56.886Z,44.53
2018-11-01T22:59:25.328Z,42.30
2018-11-01T23:01:53.777Z,45.03
2018-11-01T23:04:22.228Z,51.60
2018-11-01T23:06:50.647Z,51.07
2018-11-01T23:09:19.119Z,55.87
2018-11-01T23:11:47.564Z,47.50
2018-11-01T23:14:16.110Z,46.80
2018-11-01T23:16:44.536Z,44.20
2018-11-01T23:19:13.302Z,46.97
2018-11-01T23:21:41.721Z,42.23
2018-11-01T23:24:10.166Z,41.67
2018-11-01T23:26:38.635Z,44.60
2018-11-01T23:29:07.078Z,42.90
2018-11-01T23:31:35.504Z,50.70
2018-11-01T23:34:04.191Z,41.80
2018-11-01T23:36:38.012Z,46.13
2018-11-01T23:39:14.084Z,43.97
2018-11-01T23:41:48.254Z,44.90
2018-11-01T23:44:22.276Z,54.03
2018-11-01T23:46:56.125Z,41.17
2018-11-01T23:49:40.619Z,44.17
2018-11-01T23:52:13.467Z,48.57
2018-11-01T23:54:41.929Z,47.50
2018-11-01T23:57:10.336Z,40.73
2018-11-01T23:59:38.800Z,51.73
